sensor_id;sensor_type;location;lat;lon;timestamp;P1;durP1;ratioP1;P2;durP2;ratioP2
8399;SDS011;4237;47.030;15.396;2023-09-08T05:56:45;8.93;;;4.70;;
8399;SDS011;4237;47.030;15.396;2023-09-08T06:06:35;14.00;;;4.43;;
8399;SDS011;4237;47.030;15.396;2023-09-08T06:11:33;10.70;;;4.40;;
8399;SDS011;4237;47.030;15.396;2023-09-08T06:14:01;7.20;;;4.23;;
8399;SDS011;4237;47.030;15.396;2023-09-08T06:18:57;9.08;;;4.30;;
8399;SDS011;4237;47.030;15.396;2023-09-08T06:21:26;8.33;;;4.15;;
8399;SDS011;4237;47.030;15.396;2023-09-08T06:23:54;16.62;;;4.12;;
8399;SDS011;4237;47.030;15.396;2023-09-08T06:26:22;8.03;;;4.30;;
8399;SDS011;4237;47.030;15.396;2023-09-08T06:28:50;11.48;;;4.40;;
8399;SDS011;4237;47.030;15.396;2023-09-08T06:31:19;11.68;;;4.37;;
8399;SDS011;4237;47.030;15.396;2023-09-08T06:33:47;9.05;;;4.30;;
8399;SDS011;4237;47.030;15.396;2023-09-08T06:36:17;15.17;;;4.47;;
8399;SDS011;4237;47.030;15.396;2023-09-08T06:38:46;8.88;;;4.37;;
8399;SDS011;4237;47.030;15.396;2023-09-08T06:41:14;16.80;;;4.20;;
8399;SDS011;4237;47.030;15.396;2023-09-08T06:43:42;12.25;;;4.58;;
8399;SDS011;4237;47.030;15.396;2023-09-08T06:46:10;8.60;;;3.98;;
8399;SDS011;4237;47.030;15.396;2023-09-08T06:48:38;7.05;;;3.90;;
8399;SDS011;4237;47.030;15.396;2023-09-08T06:51:06;13.72;;;4.20;;
8399;SDS011;4237;47.030;15.396;2023-09-08T06:53:35;12.25;;;4.03;;
8399;SDS011;4237;47.030;15.396;2023-09-08T06:56:04;13.75;;;3.70;;
8399;SDS011;4237;47.030;15.396;2023-09-08T06:58:32;23.00;;;4.35;;
8399;SDS011;4237;47.030;15.396;2023-09-08T07:01:00;9.80;;;4.25;;
8399;SDS011;4237;47.030;15.396;2023-09-08T07:03:28;6.87;;;4.03;;
8399;SDS011;4237;47.030;15.396;2023-09-08T07:05:58;9.63;;;4.12;;
8399;SDS011;4237;47.030;15.396;2023-09-08T07:08:26;7.37;;;3.85;;
8399;SDS011;4237;47.030;15.396;2023-09-08T07:10:55;12.25;;;3.80;;
8399;SDS011;4237;47.030;15.396;2023-09-08T07:13:23;5.55;;;3.75;;
8399;SDS011;4237;47.030;15.396;2023-09-08T07:15:51;5.80;;;3.45;;
8399;SDS011;4237;47.030;15.396;2023-09-08T07:18:19;7.50;;;3.80;;
8399;SDS011;4237;47.030;15.396;2023-09-08T07:20:47;7.90;;;3.62;;
8399;SDS011;4237;47.030;15.396;2023-09-08T07:23:16;4.87;;;2.80;;
8399;SDS011;4237;47.030;15.396;2023-09-08T07:25:47;12.73;;;3.95;;
8399;SDS011;4237;47.030;15.396;2023-09-08T07:28:16;5.95;;;3.60;;
8399;SDS011;4237;47.030;15.396;2023-09-08T07:30:44;7.15;;;4.25;;
8399;SDS011;4237;47.030;15.396;2023-09-08T07:35:40;4.60;;;3.40;;
8399;SDS011;4237;47.030;15.396;2023-09-08T07:45:30;5.40;;;3.60;;
8399;SDS011;4237;47.030;15.396;2023-09-08T07:47:59;4.10;;;3.70;;
8399;SDS011;4237;47.030;15.396;2023-09-08T07:50:27;4.25;;;3.40;;
8399;SDS011;4237;47.030;15.396;2023-09-08T07:52:56;3.50;;;2.87;;
8399;SDS011;4237;47.030;15.396;2023-09-08T07:55:24;3.87;;;3.02;;
8399;SDS011;4237;47.030;15.396;2023-09-08T08:54:39;4.60;;;2.55;;
8399;SDS011;4237;47.030;15.396;2023-09-08T08:57:07;5.60;;;2.80;;
8399;SDS011;4237;47.030;15.396;2023-09-08T09:02:04;4.47;;;3.20;;
8399;SDS011;4237;47.030;15.396;2023-09-08T09:04:33;4.95;;;3.40;;
8399;SDS011;4237;47.030;15.396;2023-09-08T09:07:01;5.55;;;2.83;;
8399;SDS011;4237;47.030;15.396;2023-09-08T09:09:31;4.85;;;3.08;;
8399;SDS011;4237;47.030;15.396;2023-09-08T09:11:59;6.92;;;2.85;;
8399;SDS011;4237;47.030;15.396;2023-09-08T09:14:33;7.30;;;2.92;;
8399;SDS011;4237;47.030;15.396;2023-09-08T09:17:02;2.98;;;2.67;;
8399;SDS011;4237;47.030;15.396;2023-09-08T09:19:32;5.72;;;2.40;;
8399;SDS011;4237;47.030;15.396;2023-09-08T09:22:02;5.70;;;2.58;;
8399;SDS011;4237;47.030;15.396;2023-09-08T09:24:34;2.30;;;2.10;;
8399;SDS011;4237;47.030;15.396;2023-09-08T09:27:04;2.70;;;2.50;;
8399;SDS011;4237;47.030;15.396;2023-09-08T09:29:34;5.90;;;3.05;;
8399;SDS011;4237;47.030;15.396;2023-09-08T09:32:06;3.45;;;2.90;;
8399;SDS011;4237;47.030;15.396;2023-09-08T09:34:36;6.78;;;3.05;;
8399;SDS011;4237;47.030;15.396;2023-09-08T09:37:05;8.15;;;2.80;;
8399;SDS011;4237;47.030;15.396;2023-09-08T09:39:34;7.60;;;2.90;;
8399;SDS011;4237;47.030;15.396;2023-09-08T09:42:02;5.95;;;3.30;;
8399;SDS011;4237;47.030;15.396;2023-09-08T09:44:31;6.08;;;2.72;;
8399;SDS011;4237;47.030;15.396;2023-09-08T09:47:00;4.00;;;2.60;;
8399;SDS011;4237;47.030;15.396;2023-09-08T09:49:28;8.05;;;2.90;;
8399;SDS011;4237;47.030;15.396;2023-09-08T09:51:58;5.67;;;3.30;;
8399;SDS011;4237;47.030;15.396;2023-09-08T09:54:26;8.15;;;3.20;;
8399;SDS011;4237;47.030;15.396;2023-09-08T09:56:56;6.92;;;2.90;;
8399;SDS011;4237;47.030;15.396;2023-09-08T09:59:24;6.42;;;2.92;;
8399;SDS011;4237;47.030;15.396;2023-09-08T10:01:53;6.00;;;3.10;;
8399;SDS011;4237;47.030;15.396;2023-09-08T10:04:22;3.27;;;2.37;;
8399;SDS011;4237;47.030;15.396;2023-09-08T10:06:50;4.22;;;2.33;;
8399;SDS011;4237;47.030;15.396;2023-09-08T10:09:19;4.55;;;2.45;;
8399;SDS011;4237;47.030;15.396;2023-09-08T10:11:48;2.87;;;2.35;;
8399;SDS011;4237;47.030;15.396;2023-09-08T10:14:17;3.15;;;2.20;;
8399;SDS011;4237;47.030;15.396;2023-09-08T10:16:46;4.97;;;2.75;;
8399;SDS011;4237;47.030;15.396;2023-09-08T10:19:16;2.62;;;2.30;;
8399;SDS011;4237;47.030;15.396;2023-09-08T10:21:47;4.47;;;2.40;;
8399;SDS011;4237;47.030;15.396;2023-09-08T10:24:22;3.92;;;2.52;;
8399;SDS011;4237;47.030;15.396;2023-09-08T10:27:04;5.70;;;2.80;;
8399;SDS011;4237;47.030;15.396;2023-09-08T10:29:34;2.92;;;2.27;;
8399;SDS011;4237;47.030;15.396;2023-09-08T10:32:02;7.10;;;2.40;;
8399;SDS011;4237;47.030;15.396;2023-09-08T10:34:32;2.50;;;2.27;;
8399;SDS011;4237;47.030;15.396;2023-09-08T10:37:00;4.20;;;2.17;;
8399;SDS011;4237;47.030;15.396;2023-09-08T10:39:33;6.55;;;2.20;;
8399;SDS011;4237;47.030;15.396;2023-09-08T10:47:25;3.08;;;2.25;;
8399;SDS011;4237;47.030;15.396;2023-09-08T10:49:54;3.35;;;2.25;;
8399;SDS011;4237;47.030;15.396;2023-09-08T10:52:25;3.52;;;2.10;;
8399;SDS011;4237;47.030;15.396;2023-09-08T10:54:54;4.45;;;2.30;;
8399;SDS011;4237;47.030;15.396;2023-09-08T10:57:23;5.75;;;2.47;;
8399;SDS011;4237;47.030;15.396;2023-09-08T10:59:55;2.52;;;2.10;;
8399;SDS011;4237;47.030;15.396;2023-09-08T11:02:37;3.55;;;2.52;;
8399;SDS011;4237;47.030;15.396;2023-09-08T11:05:12;4.47;;;2.27;;
8399;SDS011;4237;47.030;15.396;2023-09-08T11:07:44;4.47;;;2.22;;
8399;SDS011;4237;47.030;15.396;2023-09-08T11:10:12;2.60;;;2.40;;
8399;SDS011;4237;47.030;15.396;2023-09-08T11:12:41;5.12;;;2.42;;
8399;SDS011;4237;47.030;15.396;2023-09-08T11:15:09;2.72;;;2.22;;
8399;SDS011;4237;47.030;15.396;2023-09-08T11:17:38;5.85;;;2.30;;
8399;SDS011;4237;47.030;15.396;2023-09-08T11:20:10;4.30;;;2.42;;
8399;SDS011;4237;47.030;15.396;2023-09-08T11:22:39;3.27;;;2.22;;
8399;SDS011;4237;47.030;15.396;2023-09-08T11:25:08;5.53;;;2.50;;
8399;SDS011;4237;47.030;15.396;2023-09-08T11:27:40;5.78;;;2.62;;
8399;SDS011;4237;47.030;15.396;2023-09-08T11:30:08;5.25;;;2.33;;
8399;SDS011;4237;47.030;15.396;2023-09-08T11:32:36;4.03;;;2.10;;
8399;SDS011;4237;47.030;15.396;2023-09-08T11:35:05;4.50;;;2.45;;
8399;SDS011;4237;47.030;15.396;2023-09-08T11:37:40;2.30;;;2.10;;
8399;SDS011;4237;47.030;15.396;2023-09-08T11:40:09;2.95;;;2.20;;
8399;SDS011;4237;47.030;15.396;2023-09-08T11:42:43;2.75;;;2.30;;
8399;SDS011;4237;47.030;15.396;2023-09-08T11:45:12;5.50;;;2.40;;
8399;SDS011;4237;47.030;15.396;2023-09-08T11:47:41;2.67;;;2.40;;
8399;SDS011;4237;47.030;15.396;2023-09-08T11:50:10;3.40;;;2.20;;
8399;SDS011;4237;47.030;15.396;2023-09-08T11:52:40;5.20;;;2.40;;
8399;SDS011;4237;47.030;15.396;2023-09-08T11:55:08;2.92;;;2.50;;
8399;SDS011;4237;47.030;15.396;2023-09-08T11:57:36;2.77;;;2.30;;
8399;SDS011;4237;47.030;15.396;2023-09-08T12:00:08;3.47;;;2.40;;
8399;SDS011;4237;47.030;15.396;2023-09-08T12:02:37;4.97;;;2.50;;
8399;SDS011;4237;47.030;15.396;2023-09-08T12:05:05;2.20;;;2.00;;
8399;SDS011;4237;47.030;15.396;2023-09-08T12:07:33;3.15;;;2.85;;
8399;SDS011;4237;47.030;15.396;2023-09-08T12:10:06;2.75;;;2.00;;
8399;SDS011;4237;47.030;15.396;2023-09-08T12:12:31;5.00;;;2.15;;
8399;SDS011;4237;47.030;15.396;2023-09-08T12:14:59;4.05;;;2.47;;
8399;SDS011;4237;47.030;15.396;2023-09-08T12:17:28;11.35;;;2.15;;
8399;SDS011;4237;47.030;15.396;2023-09-08T12:19:56;4.47;;;2.50;;
8399;SDS011;4237;47.030;15.396;2023-09-08T12:22:24;3.85;;;3.05;;
8399;SDS011;4237;47.030;15.396;2023-09-08T12:24:56;3.92;;;2.33;;
8399;SDS011;4237;47.030;15.396;2023-09-08T12:27:25;4.47;;;2.20;;
8399;SDS011;4237;47.030;15.396;2023-09-08T12:29:55;3.87;;;1.90;;
8399;SDS011;4237;47.030;15.396;2023-09-08T12:32:24;2.85;;;2.33;;
8399;SDS011;4237;47.030;15.396;2023-09-08T12:34:52;3.00;;;2.62;;
8399;SDS011;4237;47.030;15.396;2023-09-08T12:37:24;4.28;;;2.30;;
8399;SDS011;4237;47.030;15.396;2023-09-08T12:39:54;2.58;;;2.37;;
8399;SDS011;4237;47.030;15.396;2023-09-08T12:42:22;14.43;;;2.67;;
8399;SDS011;4237;47.030;15.396;2023-09-08T12:44:55;5.33;;;2.50;;
8399;SDS011;4237;47.030;15.396;2023-09-08T12:47:23;5.65;;;2.45;;
8399;SDS011;4237;47.030;15.396;2023-09-08T12:49:51;3.47;;;2.20;;
8399;SDS011;4237;47.030;15.396;2023-09-08T12:52:21;4.62;;;2.17;;
8399;SDS011;4237;47.030;15.396;2023-09-08T12:54:49;3.30;;;2.25;;
8399;SDS011;4237;47.030;15.396;2023-09-08T12:57:17;3.02;;;2.37;;
8399;SDS011;4237;47.030;15.396;2023-09-08T12:59:46;4.65;;;2.12;;
8399;SDS011;4237;47.030;15.396;2023-09-08T13:02:14;3.37;;;2.45;;
8399;SDS011;4237;47.030;15.396;2023-09-08T13:04:42;2.83;;;2.40;;
8399;SDS011;4237;47.030;15.396;2023-09-08T13:07:12;2.90;;;2.30;;
8399;SDS011;4237;47.030;15.396;2023-09-08T13:09:41;2.92;;;2.10;;
8399;SDS011;4237;47.030;15.396;2023-09-08T13:12:09;6.10;;;2.33;;
8399;SDS011;4237;47.030;15.396;2023-09-08T13:14:39;5.12;;;3.52;;
8399;SDS011;4237;47.030;15.396;2023-09-08T13:17:07;3.25;;;2.30;;
8399;SDS011;4237;47.030;15.396;2023-09-08T13:19:36;3.00;;;2.20;;
8399;SDS011;4237;47.030;15.396;2023-09-08T13:22:06;3.92;;;2.47;;
8399;SDS011;4237;47.030;15.396;2023-09-08T13:24:35;3.62;;;2.52;;
8399;SDS011;4237;47.030;15.396;2023-09-08T13:27:03;3.05;;;2.12;;
8399;SDS011;4237;47.030;15.396;2023-09-08T13:29:32;2.72;;;2.12;;
8399;SDS011;4237;47.030;15.396;2023-09-08T13:32:00;4.12;;;2.33;;
8399;SDS011;4237;47.030;15.396;2023-09-08T13:34:30;4.17;;;2.42;;
8399;SDS011;4237;47.030;15.396;2023-09-08T13:37:01;4.78;;;2.40;;
8399;SDS011;4237;47.030;15.396;2023-09-08T13:39:30;3.67;;;2.20;;
8399;SDS011;4237;47.030;15.396;2023-09-08T13:41:59;5.72;;;2.35;;
8399;SDS011;4237;47.030;15.396;2023-09-08T13:44:28;2.45;;;2.25;;
8399;SDS011;4237;47.030;15.396;2023-09-08T13:46:56;5.25;;;2.30;;
8399;SDS011;4237;47.030;15.396;2023-09-08T13:49:25;2.67;;;2.30;;
8399;SDS011;4237;47.030;15.396;2023-09-08T13:51:54;3.30;;;2.52;;
8399;SDS011;4237;47.030;15.396;2023-09-08T13:54:23;5.37;;;2.58;;
8399;SDS011;4237;47.030;15.396;2023-09-08T13:56:58;2.35;;;2.00;;
8399;SDS011;4237;47.030;15.396;2023-09-08T13:59:28;5.42;;;2.35;;
8399;SDS011;4237;47.030;15.396;2023-09-08T14:01:56;4.12;;;2.33;;
8399;SDS011;4237;47.030;15.396;2023-09-08T14:04:26;2.45;;;2.22;;
8399;SDS011;4237;47.030;15.396;2023-09-08T14:06:55;4.00;;;3.00;;
8399;SDS011;4237;47.030;15.396;2023-09-08T14:09:23;3.47;;;2.42;;
8399;SDS011;4237;47.030;15.396;2023-09-08T14:11:54;3.37;;;2.42;;
8399;SDS011;4237;47.030;15.396;2023-09-08T14:14:24;4.65;;;2.40;;
8399;SDS011;4237;47.030;15.396;2023-09-08T14:16:52;5.60;;;2.12;;
8399;SDS011;4237;47.030;15.396;2023-09-08T14:19:21;4.08;;;2.35;;
8399;SDS011;4237;47.030;15.396;2023-09-08T14:21:50;9.63;;;2.70;;
8399;SDS011;4237;47.030;15.396;2023-09-08T14:24:19;4.03;;;2.92;;
8399;SDS011;4237;47.030;15.396;2023-09-08T14:26:48;6.45;;;2.50;;
8399;SDS011;4237;47.030;15.396;2023-09-08T14:29:18;4.95;;;2.95;;
8399;SDS011;4237;47.030;15.396;2023-09-08T14:31:47;4.10;;;2.27;;
8399;SDS011;4237;47.030;15.396;2023-09-08T14:34:16;3.77;;;2.47;;
8399;SDS011;4237;47.030;15.396;2023-09-08T14:36:44;5.17;;;2.87;;
8399;SDS011;4237;47.030;15.396;2023-09-08T14:39:13;4.12;;;2.33;;
8399;SDS011;4237;47.030;15.396;2023-09-08T14:41:42;2.70;;;2.50;;
8399;SDS011;4237;47.030;15.396;2023-09-08T14:44:12;4.17;;;2.30;;
8399;SDS011;4237;47.030;15.396;2023-09-08T14:46:40;2.45;;;2.25;;
8399;SDS011;4237;47.030;15.396;2023-09-08T14:49:09;4.30;;;2.17;;
8399;SDS011;4237;47.030;15.396;2023-09-08T14:51:39;4.33;;;2.60;;
8399;SDS011;4237;47.030;15.396;2023-09-08T14:54:07;2.52;;;2.22;;
8399;SDS011;4237;47.030;15.396;2023-09-08T14:56:36;2.45;;;2.25;;
8399;SDS011;4237;47.030;15.396;2023-09-08T14:59:05;8.75;;;2.98;;
8399;SDS011;4237;47.030;15.396;2023-09-08T15:01:33;2.80;;;2.45;;
8399;SDS011;4237;47.030;15.396;2023-09-08T15:04:02;4.97;;;2.45;;
8399;SDS011;4237;47.030;15.396;2023-09-08T15:06:31;5.22;;;2.80;;
8399;SDS011;4237;47.030;15.396;2023-09-08T15:09:00;3.77;;;2.20;;
8399;SDS011;4237;47.030;15.396;2023-09-08T15:11:28;6.22;;;2.70;;
8399;SDS011;4237;47.030;15.396;2023-09-08T15:13:57;3.40;;;2.70;;
8399;SDS011;4237;47.030;15.396;2023-09-08T15:16:25;4.23;;;2.27;;
8399;SDS011;4237;47.030;15.396;2023-09-08T16:15:31;3.00;;;2.50;;
8399;SDS011;4237;47.030;15.396;2023-09-08T23:29:02;6.50;;;5.13;;
8399;SDS011;4237;47.030;15.396;2023-09-08T23:31:30;5.07;;;4.53;;
8399;SDS011;4237;47.030;15.396;2023-09-08T23:33:58;9.40;;;5.90;;
8399;SDS011;4237;47.030;15.396;2023-09-08T23:36:26;6.90;;;5.70;;
8399;SDS011;4237;47.030;15.396;2023-09-08T23:38:55;5.50;;;4.60;;
8399;SDS011;4237;47.030;15.396;2023-09-08T23:41:23;8.10;;;5.70;;
8399;SDS011;4237;47.030;15.396;2023-09-08T23:43:52;6.40;;;5.20;;
8399;SDS011;4237;47.030;15.396;2023-09-08T23:46:21;5.95;;;5.00;;
8399;SDS011;4237;47.030;15.396;2023-09-08T23:48:49;6.30;;;5.20;;
